createdAt,value
2018-09-03T00:00:24.533Z,85.30
2018-09-03T00:02:51.814Z,85.40
2018-09-03T00:05:19.064Z,85.80
2018-09-03T00:07:46.607Z,85.90
2018-09-03T00:10:13.910Z,86.30
2018-09-03T00:12:41.276Z,86.60
2018-09-03T00:15:08.546Z,86.60
2018-09-03T00:17:35.880Z,86.60
2018-09-03T00:20:03.235Z,87.00
2018-09-03T00:22:30.562Z,87.20
2018-09-03T00:24:57.896Z,87.40
2018-09-03T00:27:25.173Z,87.50
2018-09-03T00:29:53.496Z,87.80
2018-09-03T00:32:26.695Z,88.20
2018-09-03T00:34:59.628Z,88.20
2018-09-03T00:37:32.760Z,88.50
2018-09-03T00:40:05.774Z,88.80
2018-09-03T00:42:38.967Z,88.90
2018-09-03T00:45:11.964Z,89.30
2018-09-03T00:47:39.264Z,89.30
2018-09-03T00:50:06.556Z,89.50
2018-09-03T00:52:33.823Z,89.40
2018-09-03T00:55:01.265Z,89.90
2018-09-03T00:57:28.593Z,90.00
2018-09-03T00:59:55.946Z,90.00
2018-09-03T01:02:23.303Z,90.10
2018-09-03T01:04:50.646Z,90.20
2018-09-03T01:07:18.006Z,90.40
2018-09-03T01:09:45.232Z,90.40
2018-09-03T01:12:13.527Z,90.40
2018-09-03T01:14:40.809Z,90.50
2018-09-03T01:17:08.133Z,90.50
2018-09-03T01:19:35.624Z,90.90
2018-09-03T01:22:02.975Z,91.10
2018-09-03T01:24:30.261Z,91.20
2018-09-03T01:26:57.549Z,91.30
2018-09-03T01:29:25.860Z,91.50
2018-09-03T01:31:54.946Z,91.40
2018-09-03T01:34:23.358Z,91.60
2018-09-03T01:36:50.761Z,91.60
2018-09-03T01:39:18.122Z,91.60
2018-09-03T01:41:45.438Z,91.80
2018-09-03T01:44:12.691Z,91.90
2018-09-03T01:46:40.117Z,91.90
2018-09-03T01:49:07.579Z,92.00
2018-09-03T01:51:34.895Z,91.90
2018-09-03T01:54:02.145Z,92.00
2018-09-03T01:56:29.500Z,92.20
2018-09-03T01:58:56.767Z,92.20
2018-09-03T02:01:24.278Z,92.20
2018-09-03T02:03:51.502Z,92.40
2018-09-03T02:06:19.024Z,92.40
2018-09-03T02:08:46.235Z,92.60
2018-09-03T02:11:13.726Z,92.60
2018-09-03T02:13:41.062Z,92.80
2018-09-03T02:16:08.407Z,92.70
2018-09-03T02:18:35.759Z,92.90
2018-09-03T02:21:03.083Z,93.00
2018-09-03T02:23:30.395Z,93.00
2018-09-03T02:25:57.622Z,93.00
2018-09-03T02:28:24.874Z,92.80
2018-09-03T02:30:52.170Z,92.90
2018-09-03T02:33:19.433Z,92.80
2018-09-03T02:35:46.785Z,92.80
2018-09-03T02:38:14.086Z,92.80
2018-09-03T02:40:41.340Z,92.70
2018-09-03T02:43:08.619Z,92.70
2018-09-03T02:45:35.851Z,92.80
2018-09-03T02:48:03.231Z,92.80
2018-09-03T02:50:30.487Z,93.00
2018-09-03T02:52:57.747Z,93.00
2018-09-03T02:55:25.022Z,93.10
2018-09-03T02:57:52.267Z,93.20
2018-09-03T03:00:23.939Z,93.30
2018-09-03T03:02:51.211Z,93.20
2018-09-03T03:05:18.471Z,93.30
2018-09-03T03:07:45.770Z,93.30
2018-09-03T03:10:14.020Z,93.30
2018-09-03T03:12:42.448Z,93.40
2018-09-03T03:15:09.734Z,93.30
2018-09-03T03:17:37.011Z,93.30
2018-09-03T03:20:04.831Z,93.50
2018-09-03T03:22:32.115Z,93.40
2018-09-03T03:24:59.506Z,93.40
2018-09-03T03:27:26.742Z,93.60
2018-09-03T03:29:54.005Z,93.60
2018-09-03T03:32:21.386Z,93.70
2018-09-03T03:34:48.636Z,93.80
2018-09-03T03:37:15.936Z,93.80
2018-09-03T03:39:43.363Z,93.90
2018-09-03T03:42:10.679Z,93.90
2018-09-03T03:44:37.902Z,93.90
2018-09-03T03:47:05.228Z,93.80
2018-09-03T03:49:32.548Z,93.80
2018-09-03T03:51:59.823Z,93.70
2018-09-03T03:54:27.065Z,93.50
2018-09-03T03:56:54.426Z,93.50
2018-09-03T03:59:21.695Z,93.50
2018-09-03T04:01:49.452Z,93.40
2018-09-03T04:04:16.798Z,94.00
2018-09-03T04:06:44.198Z,93.70
2018-09-03T04:09:11.679Z,94.00
2018-09-03T04:11:39.859Z,94.10
2018-09-03T04:14:07.243Z,94.20
2018-09-03T04:16:34.778Z,94.20
2018-09-03T04:19:02.214Z,94.50
2018-09-03T04:21:29.465Z,94.40
2018-09-03T04:23:56.711Z,94.30
2018-09-03T04:26:23.949Z,94.60
2018-09-03T04:28:51.428Z,94.60
2018-09-03T04:31:18.646Z,94.50
2018-09-03T04:33:45.954Z,94.50
2018-09-03T04:36:13.276Z,94.50
2018-09-03T04:38:40.538Z,94.40
2018-09-03T04:41:07.884Z,94.30
2018-09-03T04:43:35.118Z,94.70
2018-09-03T04:46:02.389Z,94.60
2018-09-03T04:48:29.803Z,94.50
2018-09-03T04:50:57.079Z,94.70
2018-09-03T04:53:24.470Z,94.70
2018-09-03T04:55:51.798Z,94.70
2018-09-03T04:58:19.174Z,94.70
2018-09-03T05:00:46.511Z,94.80
2018-09-03T05:03:13.775Z,95.00
2018-09-03T05:05:41.061Z,94.80
2018-09-03T05:08:08.271Z,95.10
2018-09-03T05:10:35.887Z,94.90
2018-09-03T05:13:03.147Z,94.90
2018-09-03T05:15:30.470Z,94.80
2018-09-03T05:17:57.902Z,94.60
2018-09-03T05:20:25.129Z,94.40
2018-09-03T05:22:52.430Z,94.40
2018-09-03T05:25:19.653Z,94.40
2018-09-03T05:27:47.039Z,94.40
2018-09-03T05:30:14.276Z,94.20
2018-09-03T05:32:41.548Z,94.10
2018-09-03T05:35:08.855Z,94.30
2018-09-03T05:37:36.218Z,94.30
2018-09-03T05:40:03.540Z,94.20
2018-09-03T05:42:30.791Z,94.10
2018-09-03T05:44:58.179Z,93.80
2018-09-03T05:47:25.443Z,93.70
2018-09-03T05:49:52.728Z,93.50
2018-09-03T05:52:21.089Z,93.30
2018-09-03T05:54:48.361Z,93.20
2018-09-03T05:57:15.745Z,93.20
2018-09-03T05:59:42.978Z,93.00
2018-09-03T06:02:15.310Z,92.70
2018-09-03T06:04:42.691Z,92.30
2018-09-03T06:07:09.906Z,92.20
2018-09-03T06:09:37.347Z,92.20
2018-09-03T06:12:05.297Z,92.20
2018-09-03T06:14:32.997Z,92.20
2018-09-03T06:17:00.259Z,92.50
2018-09-03T06:19:27.577Z,92.00
2018-09-03T06:21:54.874Z,91.70
2018-09-03T06:24:22.110Z,91.60
2018-09-03T06:26:49.398Z,91.50
2018-09-03T06:29:16.619Z,91.60
2018-09-03T06:31:43.926Z,91.40
2018-09-03T06:34:11.167Z,91.30
2018-09-03T06:36:38.415Z,91.10
2018-09-03T06:39:06.951Z,91.00
2018-09-03T06:41:34.187Z,90.90
2018-09-03T06:44:01.463Z,90.90
2018-09-03T06:46:28.739Z,91.10
2018-09-03T06:48:55.993Z,90.90
2018-09-03T06:51:23.259Z,90.70
2018-09-03T06:53:50.694Z,90.60
2018-09-03T06:56:17.978Z,90.40
2018-09-03T06:58:45.260Z,90.30
2018-09-03T07:01:12.870Z,90.00
2018-09-03T07:03:41.235Z,89.70
2018-09-03T07:06:08.482Z,89.70
2018-09-03T07:08:36.136Z,89.30
2018-09-03T07:11:03.446Z,89.00
2018-09-03T07:13:30.694Z,88.50
2018-09-03T07:15:57.963Z,87.90
2018-09-03T07:18:25.235Z,87.90
2018-09-03T07:20:52.567Z,87.90
2018-09-03T07:23:19.875Z,87.30
2018-09-03T07:25:59.501Z,86.80
2018-09-03T07:28:26.776Z,86.80
2018-09-03T07:30:54.079Z,86.40
2018-09-03T07:33:21.318Z,86.30
2018-09-03T07:35:48.559Z,86.00
2018-09-03T07:38:15.834Z,85.90
2018-09-03T07:40:43.072Z,85.60
2018-09-03T07:43:10.489Z,85.20
2018-09-03T07:45:37.871Z,83.90
2018-09-03T07:48:05.118Z,83.80
2018-09-03T07:50:32.346Z,83.40
2018-09-03T07:52:59.642Z,82.70
2018-09-03T07:55:26.987Z,83.10
2018-09-03T07:57:54.258Z,82.60
2018-09-03T08:00:21.525Z,82.20
2018-09-03T08:02:48.810Z,82.50
2018-09-03T08:05:16.075Z,81.60
2018-09-03T08:07:43.419Z,81.60
2018-09-03T08:10:10.718Z,81.60
2018-09-03T08:12:38.327Z,81.80
2018-09-03T08:15:06.371Z,82.10
2018-09-03T08:17:33.638Z,80.90
2018-09-03T08:20:00.957Z,81.50
2018-09-03T08:22:28.126Z,81.70
2018-09-03T08:24:55.400Z,80.40
2018-09-03T08:27:22.766Z,80.60
2018-09-03T08:29:50.030Z,80.60
2018-09-03T08:32:17.375Z,80.90
2018-09-03T08:34:44.685Z,79.60
2018-09-03T08:37:11.930Z,79.90
2018-09-03T08:39:39.314Z,79.50
2018-09-03T08:42:06.611Z,78.80
2018-09-03T08:44:33.823Z,78.20
2018-09-03T08:47:01.166Z,77.90
2018-09-03T08:49:28.603Z,78.20
2018-09-03T08:51:55.953Z,77.30
2018-09-03T08:54:23.210Z,76.30
2018-09-03T08:56:50.668Z,76.20
2018-09-03T08:59:17.755Z,76.40
2018-09-03T09:01:45.005Z,76.00
2018-09-03T09:04:12.388Z,75.60
2018-09-03T09:06:39.679Z,75.30
2018-09-03T09:09:07.591Z,75.80
2018-09-03T09:11:34.974Z,74.60
2018-09-03T09:14:02.268Z,74.40
2018-09-03T09:16:29.626Z,73.30
2018-09-03T09:18:56.911Z,73.30
2018-09-03T09:21:24.166Z,73.10
2018-09-03T09:23:51.408Z,72.90
2018-09-03T09:26:18.670Z,72.90
2018-09-03T09:28:46.036Z,73.00
2018-09-03T09:31:13.351Z,72.60
2018-09-03T09:33:40.596Z,72.20
2018-09-03T09:36:07.858Z,71.40
2018-09-03T09:38:35.116Z,71.90
2018-09-03T09:41:02.495Z,70.60
2018-09-03T09:43:29.724Z,68.70
2018-09-03T09:45:56.984Z,68.50
2018-09-03T09:48:24.347Z,68.30
2018-09-03T09:50:51.610Z,68.10
2018-09-03T09:53:18.894Z,67.50
2018-09-03T09:55:46.165Z,68.70
2018-09-03T09:58:13.557Z,65.80
2018-09-03T10:00:46.681Z,65.10
2018-09-03T10:03:13.895Z,65.10
2018-09-03T10:05:41.179Z,65.00
2018-09-03T10:08:08.452Z,64.50
2018-09-03T10:10:35.683Z,62.80
2018-09-03T10:13:02.969Z,63.60
2018-09-03T10:15:30.223Z,61.20
2018-09-03T10:17:57.571Z,60.80
2018-09-03T10:20:24.847Z,60.50
2018-09-03T10:22:52.098Z,59.80
2018-09-03T10:25:19.420Z,60.80
2018-09-03T10:27:46.677Z,60.30
2018-09-03T10:30:14.024Z,59.30
2018-09-03T10:32:41.351Z,59.30
2018-09-03T10:35:08.667Z,58.50
2018-09-03T10:37:35.919Z,58.60
2018-09-03T10:40:03.231Z,58.20
2018-09-03T10:42:30.534Z,57.80
2018-09-03T10:44:57.843Z,57.20
2018-09-03T10:47:25.167Z,56.90
2018-09-03T10:49:52.377Z,56.20
2018-09-03T10:52:19.583Z,56.80
2018-09-03T10:54:47.131Z,56.10
2018-09-03T10:57:14.579Z,55.50
2018-09-03T10:59:41.936Z,55.20
2018-09-03T11:02:09.316Z,55.60
2018-09-03T11:04:36.691Z,55.70
2018-09-03T11:07:04.110Z,55.50
2018-09-03T11:09:31.400Z,55.60
2018-09-03T11:11:58.727Z,54.80
2018-09-03T11:14:26.132Z,54.70
2018-09-03T11:16:53.416Z,54.80
2018-09-03T11:19:23.171Z,54.80
2018-09-03T11:21:50.687Z,53.80
2018-09-03T11:24:18.054Z,54.30
2018-09-03T11:26:45.407Z,54.30
2018-09-03T11:29:12.680Z,53.70
2018-09-03T11:31:40.041Z,53.80
2018-09-03T11:34:07.315Z,53.70
2018-09-03T11:36:35.018Z,53.90
2018-09-03T11:39:02.390Z,52.30
2018-09-03T11:41:29.735Z,52.80
2018-09-03T11:43:56.958Z,51.80
2018-09-03T11:46:24.292Z,52.20
2018-09-03T11:48:51.537Z,51.50
2018-09-03T11:51:18.810Z,50.50
2018-09-03T11:53:46.077Z,50.00
2018-09-03T11:56:13.346Z,49.10
2018-09-03T11:58:40.590Z,49.00
2018-09-03T12:01:07.940Z,49.40
2018-09-03T12:03:35.223Z,49.20
2018-09-03T12:06:02.517Z,49.00
2018-09-03T12:08:29.752Z,48.50
2018-09-03T12:10:57.090Z,48.80
2018-09-03T12:13:24.379Z,48.70
2018-09-03T12:16:23.527Z,47.80
2018-09-03T12:18:51.301Z,48.10
2018-09-03T12:21:18.620Z,47.40
2018-09-03T12:23:45.976Z,47.50
2018-09-03T12:26:13.338Z,47.60
2018-09-03T12:28:40.683Z,47.60
2018-09-03T12:31:08.168Z,47.30
2018-09-03T12:33:35.464Z,46.50
2018-09-03T12:36:03.396Z,45.30
2018-09-03T12:38:30.824Z,43.00
2018-09-03T12:40:58.278Z,40.90
2018-09-03T12:43:25.630Z,39.40
2018-09-03T12:46:00.277Z,37.80
2018-09-03T12:48:28.110Z,36.30
2018-09-03T12:50:55.380Z,36.30
2018-09-03T12:53:22.664Z,37.80
2018-09-03T12:55:50.002Z,37.50
2018-09-03T12:58:17.316Z,36.70
2018-09-03T13:00:44.625Z,36.00
2018-09-03T13:03:12.111Z,35.00
2018-09-03T13:05:39.367Z,34.70
2018-09-03T13:08:06.866Z,34.30
2018-09-03T13:10:34.218Z,34.10
2018-09-03T13:13:01.501Z,33.80
2018-09-03T13:15:28.748Z,33.30
2018-09-03T13:17:55.992Z,33.10
2018-09-03T13:20:23.274Z,33.10
2018-09-03T13:22:50.498Z,32.70
2018-09-03T13:25:17.887Z,31.80
2018-09-03T13:27:45.301Z,30.90
2018-09-03T13:30:12.607Z,29.80
2018-09-03T13:32:39.905Z,29.60
2018-09-03T13:35:07.226Z,30.00
2018-09-03T13:37:34.527Z,31.10
2018-09-03T13:40:01.818Z,31.10
2018-09-03T13:42:29.064Z,31.10
2018-09-03T13:44:56.332Z,31.60
2018-09-03T13:47:24.035Z,32.10
2018-09-03T13:49:51.351Z,32.00
2018-09-03T13:52:19.647Z,31.70
2018-09-03T13:54:47.092Z,31.30
2018-09-03T13:57:14.287Z,30.60
2018-09-03T13:59:41.532Z,30.00
2018-09-03T14:02:08.834Z,29.40
2018-09-03T14:04:36.110Z,28.60
2018-09-03T14:07:03.487Z,29.10
2018-09-03T14:09:31.938Z,28.80
2018-09-03T14:11:59.172Z,28.40
2018-09-03T14:14:26.531Z,28.30
2018-09-03T14:16:54.247Z,29.30
2018-09-03T14:19:21.911Z,29.70
2018-09-03T14:21:49.282Z,30.40
2018-09-03T14:24:16.599Z,31.70
2018-09-03T14:26:44.009Z,32.80
2018-09-03T14:29:11.339Z,32.70
2018-09-03T14:31:38.711Z,33.70
2018-09-03T14:34:06.108Z,33.50
2018-09-03T14:36:34.510Z,32.70
2018-09-03T14:39:01.968Z,31.70
2018-09-03T14:41:29.341Z,31.70
2018-09-03T14:43:56.792Z,32.40
2018-09-03T14:46:24.941Z,33.90
2018-09-03T14:48:52.191Z,34.70
2018-09-03T14:51:19.442Z,34.60
2018-09-03T14:53:46.764Z,34.50
2018-09-03T14:56:30.737Z,34.70
2018-09-03T14:58:57.989Z,35.30
2018-09-03T15:01:25.353Z,34.80
2018-09-03T15:03:52.705Z,35.20
2018-09-03T15:06:20.059Z,36.60
2018-09-03T15:08:47.274Z,36.40
2018-09-03T15:11:14.535Z,36.40
2018-09-03T15:13:41.874Z,37.30
2018-09-03T15:16:09.295Z,36.90
2018-09-03T15:18:36.605Z,37.10
2018-09-03T15:21:04.926Z,35.40
2018-09-03T15:23:32.610Z,34.90
2018-09-03T15:25:59.972Z,35.50
2018-09-03T15:28:27.599Z,36.70
2018-09-03T15:30:54.927Z,38.30
2018-09-03T15:33:22.223Z,39.00
2018-09-03T15:35:49.583Z,40.20
2018-09-03T15:38:16.815Z,41.00
2018-09-03T15:40:44.087Z,41.90
2018-09-03T15:43:11.427Z,42.40
2018-09-03T15:45:38.630Z,42.60
2018-09-03T15:48:05.872Z,42.00
2018-09-03T15:50:33.160Z,41.80
2018-09-03T15:53:00.395Z,41.70
2018-09-03T15:55:27.687Z,40.00
2018-09-03T15:57:55.240Z,40.80
2018-09-03T16:00:22.496Z,41.10
2018-09-03T16:02:49.793Z,40.80
2018-09-03T16:05:17.064Z,40.50
2018-09-03T16:07:44.352Z,41.50
2018-09-03T16:10:11.579Z,40.20
2018-09-03T16:12:38.804Z,39.90
2018-09-03T16:15:06.172Z,38.30
2018-09-03T16:17:33.547Z,38.70
2018-09-03T16:20:00.853Z,38.20
2018-09-03T16:22:28.123Z,38.70
2018-09-03T16:24:55.423Z,38.90
2018-09-03T16:27:22.817Z,39.00
2018-09-03T16:29:50.179Z,39.30
2018-09-03T16:32:17.612Z,39.00
2018-09-03T16:34:44.819Z,38.90
2018-09-03T16:37:12.088Z,38.20
2018-09-03T16:39:40.042Z,38.10
2018-09-03T16:42:07.429Z,37.90
2018-09-03T16:44:34.613Z,37.60
2018-09-03T16:47:01.898Z,37.30
2018-09-03T16:49:29.164Z,37.20
2018-09-03T16:51:56.411Z,37.30
2018-09-03T16:54:23.683Z,37.50
2018-09-03T16:56:50.941Z,37.60
2018-09-03T16:59:18.323Z,37.40
2018-09-03T17:01:45.567Z,37.30
2018-09-03T17:04:12.854Z,37.60
2018-09-03T17:06:40.115Z,37.50
2018-09-03T17:09:07.388Z,38.00
2018-09-03T17:11:34.746Z,38.40
2018-09-03T17:14:01.995Z,38.60
2018-09-03T17:16:29.314Z,39.10
2018-09-03T17:18:56.589Z,39.30
2018-09-03T17:21:24.032Z,39.80
2018-09-03T17:23:51.361Z,40.70
2018-09-03T17:26:18.643Z,41.30
2018-09-03T17:28:45.953Z,42.30
2018-09-03T17:31:13.195Z,43.70
2018-09-03T17:33:40.456Z,44.10
2018-09-03T17:36:07.871Z,44.90
2018-09-03T17:38:35.188Z,45.60
2018-09-03T17:41:02.523Z,46.20
2018-09-03T17:43:29.965Z,46.90
2018-09-03T17:45:57.328Z,47.50
2018-09-03T17:48:24.891Z,47.70
2018-09-03T17:50:52.171Z,48.30
2018-09-03T17:53:20.288Z,48.90
2018-09-03T17:55:47.679Z,49.40
2018-09-03T17:58:14.892Z,49.80
2018-09-03T18:00:42.220Z,50.30
2018-09-03T18:03:09.539Z,50.60
2018-09-03T18:05:37.507Z,50.80
2018-09-03T18:08:04.935Z,51.00
2018-09-03T18:10:32.207Z,51.40
2018-09-03T18:12:59.422Z,51.70
2018-09-03T18:15:26.710Z,52.10
2018-09-03T18:17:54.001Z,52.20
2018-09-03T18:20:21.272Z,52.80
2018-09-03T18:22:48.636Z,53.00
2018-09-03T18:25:15.890Z,53.50
2018-09-03T18:27:43.126Z,53.90
2018-09-03T18:30:10.582Z,54.20
2018-09-03T18:32:37.803Z,54.70
2018-09-03T18:35:05.229Z,55.20
2018-09-03T18:37:32.522Z,55.70
2018-09-03T18:39:59.889Z,55.60
2018-09-03T18:42:27.131Z,56.70
2018-09-03T18:44:54.443Z,56.50
2018-09-03T18:47:21.666Z,56.90
2018-09-03T18:49:48.983Z,57.30
2018-09-03T18:52:17.376Z,57.60
2018-09-03T18:54:44.678Z,57.90
2018-09-03T18:57:11.964Z,58.40
2018-09-03T18:59:39.235Z,58.30
2018-09-03T19:02:06.508Z,58.80
2018-09-03T19:04:33.747Z,58.90
2018-09-03T19:07:01.087Z,59.10
2018-09-03T19:09:29.354Z,59.40
2018-09-03T19:11:56.679Z,59.40
2018-09-03T19:14:23.928Z,59.70
2018-09-03T19:16:51.221Z,60.00
2018-09-03T19:19:18.538Z,60.40
2018-09-03T19:21:45.894Z,60.70
2018-09-03T19:24:13.195Z,60.80
2018-09-03T19:26:41.544Z,61.10
2018-09-03T19:29:09.070Z,61.50
2018-09-03T19:31:40.046Z,62.00
2018-09-03T19:34:07.386Z,62.40
2018-09-03T19:36:34.947Z,62.50
2018-09-03T19:39:05.197Z,63.10
2018-09-03T19:41:32.682Z,63.50
2018-09-03T19:44:00.031Z,63.90
2018-09-03T19:46:27.347Z,64.30
2018-09-03T19:48:59.337Z,64.70
2018-09-03T19:51:28.431Z,64.90
2018-09-03T19:53:56.500Z,65.30
2018-09-03T19:56:23.841Z,66.20
2018-09-03T19:58:51.130Z,65.50
2018-09-03T20:01:18.444Z,65.60
2018-09-03T20:03:45.811Z,65.80
2018-09-03T20:06:13.117Z,65.80
2018-09-03T20:08:40.378Z,66.10
2018-09-03T20:11:07.662Z,66.20
2018-09-03T20:13:34.921Z,66.60
2018-09-03T20:16:02.215Z,66.80
2018-09-03T20:18:29.562Z,66.50
2018-09-03T20:20:56.860Z,67.60
2018-09-03T20:23:24.173Z,67.70
2018-09-03T20:25:51.443Z,67.90
2018-09-03T20:28:18.719Z,68.10
2018-09-03T20:30:45.982Z,68.10
2018-09-03T20:33:13.231Z,68.40
2018-09-03T20:35:40.493Z,68.50
2018-09-03T20:38:07.740Z,68.70
2018-09-03T20:40:35.067Z,68.80
2018-09-03T20:43:02.464Z,68.90
2018-09-03T20:45:29.971Z,68.90
2018-09-03T20:47:57.354Z,69.20
2018-09-03T20:50:24.702Z,69.30
2018-09-03T20:52:52.087Z,69.60
2018-09-03T20:55:19.432Z,69.80
2018-09-03T20:57:46.800Z,70.40
2018-09-03T21:00:14.142Z,70.10
2018-09-03T21:02:41.478Z,70.50
2018-09-03T21:05:08.962Z,70.60
2018-09-03T21:07:36.472Z,70.90
2018-09-03T21:10:03.882Z,71.20
2018-09-03T21:12:31.617Z,71.60
2018-09-03T21:14:59.088Z,71.80
2018-09-03T21:17:26.401Z,71.90
2018-09-03T21:19:54.157Z,72.10
2018-09-03T21:22:25.099Z,72.50
2018-09-03T21:24:56.814Z,72.50
2018-09-03T21:27:25.055Z,72.90
2018-09-03T21:29:52.282Z,73.20
2018-09-03T21:32:19.574Z,73.50
2018-09-03T21:34:46.946Z,74.00
2018-09-03T21:37:14.485Z,74.20
2018-09-03T21:39:43.047Z,74.50
2018-09-03T21:42:10.528Z,74.60
2018-09-03T21:44:37.879Z,75.00
2018-09-03T21:47:05.158Z,75.20
2018-09-03T21:49:32.708Z,75.60
2018-09-03T21:52:00.679Z,76.10
2018-09-03T21:54:27.976Z,76.20
2018-09-03T21:56:56.015Z,76.60
2018-09-03T21:59:23.252Z,76.80
2018-09-03T22:01:51.848Z,77.30
2018-09-03T22:04:19.128Z,77.70
2018-09-03T22:06:46.398Z,78.40
2018-09-03T22:09:13.666Z,78.30
2018-09-03T22:11:40.973Z,78.70
2018-09-03T22:14:08.377Z,79.10
2018-09-03T22:16:35.674Z,79.30
2018-09-03T22:19:02.949Z,79.50
2018-09-03T22:21:30.233Z,79.70
2018-09-03T22:23:57.458Z,80.30
2018-09-03T22:26:24.735Z,80.60
2018-09-03T22:28:51.990Z,80.90
2018-09-03T22:31:28.142Z,81.20
2018-09-03T22:33:55.530Z,81.40
2018-09-03T22:36:22.812Z,82.20
2018-09-03T22:38:50.125Z,82.30
2018-09-03T22:41:17.503Z,82.50
2018-09-03T22:43:44.806Z,82.70
2018-09-03T22:46:12.187Z,82.80
2018-09-03T22:48:39.456Z,83.40
2018-09-03T22:51:06.831Z,83.50
2018-09-03T22:53:34.397Z,83.30
2018-09-03T22:56:01.751Z,83.70
2018-09-03T22:58:29.016Z,84.10
2018-09-03T23:00:57.422Z,84.30
2018-09-03T23:03:25.230Z,84.50
2018-09-03T23:05:53.193Z,85.00
2018-09-03T23:08:22.459Z,85.40
2018-09-03T23:10:53.161Z,85.40
2018-09-03T23:13:28.347Z,85.60
2018-09-03T23:15:56.938Z,85.60
2018-09-03T23:18:25.278Z,85.60
2018-09-03T23:20:53.465Z,85.90
2018-09-03T23:23:21.020Z,85.90
2018-09-03T23:25:49.064Z,86.20
2018-09-03T23:28:16.758Z,86.40
2018-09-03T23:30:44.538Z,86.80
2018-09-03T23:33:14.080Z,86.90
2018-09-03T23:35:41.655Z,86.80
2018-09-03T23:38:08.894Z,87.00
2018-09-03T23:40:36.193Z,87.40
2018-09-03T23:43:03.572Z,87.80
2018-09-03T23:45:31.175Z,87.80
2018-09-03T23:47:58.534Z,87.90
2018-09-03T23:50:26.003Z,88.50
2018-09-03T23:52:54.707Z,88.50
2018-09-03T23:55:22.114Z,88.50
2018-09-03T23:57:49.446Z,88.70
